sensor_id;sensor_type;location;lat;lon;timestamp;P1;durP1;ratioP1;P2;durP2;ratioP2
55559;SDS011;41414;53.250;6.514;2022-12-29T00:01:17;10.82;;;9.35;;
55559;SDS011;41414;53.250;6.514;2022-12-29T00:03:46;9.57;;;7.90;;
55559;SDS011;41414;53.250;6.514;2022-12-29T00:06:12;9.35;;;8.30;;
55559;SDS011;41414;53.250;6.514;2022-12-29T00:08:38;13.55;;;10.75;;
55559;SDS011;41414;53.250;6.514;2022-12-29T00:11:06;11.90;;;10.18;;
55559;SDS011;41414;53.250;6.514;2022-12-29T00:13:33;12.85;;;10.48;;
55559;SDS011;41414;53.250;6.514;2022-12-29T00:16:18;11.00;;;9.68;;
55559;SDS011;41414;53.250;6.514;2022-12-29T00:18:44;10.00;;;8.43;;
55559;SDS011;41414;53.250;6.514;2022-12-29T00:21:14;13.68;;;9.15;;
55559;SDS011;41414;53.250;6.514;2022-12-29T00:23:59;11.32;;;8.95;;
55559;SDS011;41414;53.250;6.514;2022-12-29T00:26:43;10.70;;;9.50;;
55559;SDS011;41414;53.250;6.514;2022-12-29T00:29:30;8.90;;;8.00;;
55559;SDS011;41414;53.250;6.514;2022-12-29T00:32:14;10.55;;;9.38;;
55559;SDS011;41414;53.250;6.514;2022-12-29T00:34:58;10.32;;;8.65;;
55559;SDS011;41414;53.250;6.514;2022-12-29T00:37:40;12.05;;;8.55;;
55559;SDS011;41414;53.250;6.514;2022-12-29T00:40:27;10.02;;;7.70;;
55559;SDS011;41414;53.250;6.514;2022-12-29T00:43:11;8.65;;;7.63;;
55559;SDS011;41414;53.250;6.514;2022-12-29T00:45:55;9.20;;;8.20;;
55559;SDS011;41414;53.250;6.514;2022-12-29T00:48:21;8.35;;;7.38;;
55559;SDS011;41414;53.250;6.514;2022-12-29T00:51:06;8.55;;;7.30;;
55559;SDS011;41414;53.250;6.514;2022-12-29T00:53:33;12.02;;;8.95;;
55559;SDS011;41414;53.250;6.514;2022-12-29T00:55:59;9.27;;;7.30;;
55559;SDS011;41414;53.250;6.514;2022-12-29T00:58:27;9.68;;;7.72;;
55559;SDS011;41414;53.250;6.514;2022-12-29T01:01:02;8.77;;;7.70;;
55559;SDS011;41414;53.250;6.514;2022-12-29T01:03:29;8.40;;;6.57;;
55559;SDS011;41414;53.250;6.514;2022-12-29T01:05:55;8.27;;;7.40;;
55559;SDS011;41414;53.250;6.514;2022-12-29T01:08:21;11.45;;;8.00;;
55559;SDS011;41414;53.250;6.514;2022-12-29T01:10:57;8.63;;;7.50;;
55559;SDS011;41414;53.250;6.514;2022-12-29T01:13:25;9.77;;;7.45;;
55559;SDS011;41414;53.250;6.514;2022-12-29T01:15:51;9.77;;;7.80;;
55559;SDS011;41414;53.250;6.514;2022-12-29T01:18:17;11.68;;;8.43;;
55559;SDS011;41414;53.250;6.514;2022-12-29T01:20:43;10.50;;;7.72;;
55559;SDS011;41414;53.250;6.514;2022-12-29T01:23:09;13.73;;;8.60;;
55559;SDS011;41414;53.250;6.514;2022-12-29T01:25:34;10.35;;;8.45;;
55559;SDS011;41414;53.250;6.514;2022-12-29T01:28:00;10.30;;;7.90;;
55559;SDS011;41414;53.250;6.514;2022-12-29T01:30:26;8.65;;;7.72;;
55559;SDS011;41414;53.250;6.514;2022-12-29T01:32:52;9.25;;;7.28;;
55559;SDS011;41414;53.250;6.514;2022-12-29T01:35:18;9.82;;;8.68;;
55559;SDS011;41414;53.250;6.514;2022-12-29T01:37:44;10.23;;;7.53;;
55559;SDS011;41414;53.250;6.514;2022-12-29T01:40:09;8.60;;;7.68;;
55559;SDS011;41414;53.250;6.514;2022-12-29T01:42:36;10.02;;;7.53;;
55559;SDS011;41414;53.250;6.514;2022-12-29T01:45:03;10.25;;;8.40;;
55559;SDS011;41414;53.250;6.514;2022-12-29T01:47:36;10.15;;;8.13;;
55559;SDS011;41414;53.250;6.514;2022-12-29T01:52:33;10.63;;;7.75;;
55559;SDS011;41414;53.250;6.514;2022-12-29T01:55:01;12.65;;;10.27;;
55559;SDS011;41414;53.250;6.514;2022-12-29T01:57:29;10.95;;;9.75;;
55559;SDS011;41414;53.250;6.514;2022-12-29T02:02:29;14.60;;;11.18;;
55559;SDS011;41414;53.250;6.514;2022-12-29T02:04:57;13.82;;;11.40;;
55559;SDS011;41414;53.250;6.514;2022-12-29T02:07:24;17.50;;;12.20;;
55559;SDS011;41414;53.250;6.514;2022-12-29T02:09:52;16.13;;;11.15;;
55559;SDS011;41414;53.250;6.514;2022-12-29T02:12:20;14.98;;;11.43;;
55559;SDS011;41414;53.250;6.514;2022-12-29T02:14:49;15.23;;;12.45;;
55559;SDS011;41414;53.250;6.514;2022-12-29T02:17:41;14.45;;;11.45;;
55559;SDS011;41414;53.250;6.514;2022-12-29T02:28:22;11.40;;;8.73;;
55559;SDS011;41414;53.250;6.514;2022-12-29T02:31:24;12.15;;;9.35;;
55559;SDS011;41414;53.250;6.514;2022-12-29T02:34:20;11.90;;;8.50;;
55559;SDS011;41414;53.250;6.514;2022-12-29T02:37:06;10.30;;;8.32;;
55559;SDS011;41414;53.250;6.514;2022-12-29T02:39:50;10.07;;;7.50;;
55559;SDS011;41414;53.250;6.514;2022-12-29T02:45:20;10.48;;;7.43;;
55559;SDS011;41414;53.250;6.514;2022-12-29T02:51:01;9.52;;;6.80;;
55559;SDS011;41414;53.250;6.514;2022-12-29T02:53:29;12.00;;;8.75;;
55559;SDS011;41414;53.250;6.514;2022-12-29T02:56:17;9.35;;;6.28;;
55559;SDS011;41414;53.250;6.514;2022-12-29T02:58:43;9.68;;;7.18;;
55559;SDS011;41414;53.250;6.514;2022-12-29T03:04:10;11.48;;;8.27;;
55559;SDS011;41414;53.250;6.514;2022-12-29T03:06:50;8.65;;;5.47;;
55559;SDS011;41414;53.250;6.514;2022-12-29T03:09:27;5.90;;;4.93;;
55559;SDS011;41414;53.250;6.514;2022-12-29T03:14:44;7.07;;;4.65;;
55559;SDS011;41414;53.250;6.514;2022-12-29T03:17:35;6.50;;;4.68;;
55559;SDS011;41414;53.250;6.514;2022-12-29T03:20:09;4.75;;;3.97;;
55559;SDS011;41414;53.250;6.514;2022-12-29T03:22:39;5.13;;;4.03;;
55559;SDS011;41414;53.250;6.514;2022-12-29T03:27:47;4.97;;;3.67;;
55559;SDS011;41414;53.250;6.514;2022-12-29T03:30:15;6.38;;;3.60;;
55559;SDS011;41414;53.250;6.514;2022-12-29T03:32:42;9.57;;;2.97;;
55559;SDS011;41414;53.250;6.514;2022-12-29T03:35:13;5.70;;;2.50;;
55559;SDS011;41414;53.250;6.514;2022-12-29T03:37:44;6.30;;;3.05;;
55559;SDS011;41414;53.250;6.514;2022-12-29T03:40:17;10.68;;;3.38;;
55559;SDS011;41414;53.250;6.514;2022-12-29T03:42:46;9.43;;;4.30;;
55559;SDS011;41414;53.250;6.514;2022-12-29T03:45:13;8.00;;;2.85;;
55559;SDS011;41414;53.250;6.514;2022-12-29T03:47:39;7.65;;;3.20;;
55559;SDS011;41414;53.250;6.514;2022-12-29T03:50:05;8.45;;;3.20;;
55559;SDS011;41414;53.250;6.514;2022-12-29T03:52:33;7.30;;;2.83;;
55559;SDS011;41414;53.250;6.514;2022-12-29T03:54:59;5.53;;;3.22;;
55559;SDS011;41414;53.250;6.514;2022-12-29T03:57:25;4.05;;;2.70;;
55559;SDS011;41414;53.250;6.514;2022-12-29T03:59:51;5.97;;;3.40;;
55559;SDS011;41414;53.250;6.514;2022-12-29T04:02:17;8.18;;;3.40;;
55559;SDS011;41414;53.250;6.514;2022-12-29T04:04:42;6.32;;;3.58;;
55559;SDS011;41414;53.250;6.514;2022-12-29T04:07:08;7.05;;;3.80;;
55559;SDS011;41414;53.250;6.514;2022-12-29T04:09:34;5.63;;;3.88;;
55559;SDS011;41414;53.250;6.514;2022-12-29T04:12:00;10.07;;;3.83;;
55559;SDS011;41414;53.250;6.514;2022-12-29T04:14:26;8.18;;;3.78;;
55559;SDS011;41414;53.250;6.514;2022-12-29T04:16:52;4.20;;;3.20;;
55559;SDS011;41414;53.250;6.514;2022-12-29T04:19:17;9.77;;;2.80;;
55559;SDS011;41414;53.250;6.514;2022-12-29T04:21:43;5.13;;;3.05;;
55559;SDS011;41414;53.250;6.514;2022-12-29T04:24:09;8.43;;;2.92;;
55559;SDS011;41414;53.250;6.514;2022-12-29T04:26:35;6.65;;;2.70;;
55559;SDS011;41414;53.250;6.514;2022-12-29T04:29:01;8.10;;;2.35;;
55559;SDS011;41414;53.250;6.514;2022-12-29T04:31:26;5.10;;;2.05;;
55559;SDS011;41414;53.250;6.514;2022-12-29T04:33:52;6.13;;;2.42;;
55559;SDS011;41414;53.250;6.514;2022-12-29T04:36:18;9.93;;;2.05;;
55559;SDS011;41414;53.250;6.514;2022-12-29T04:38:44;5.93;;;1.80;;
55559;SDS011;41414;53.250;6.514;2022-12-29T04:41:10;7.03;;;2.00;;
55559;SDS011;41414;53.250;6.514;2022-12-29T04:43:35;5.65;;;1.92;;
55559;SDS011;41414;53.250;6.514;2022-12-29T04:46:01;7.35;;;1.48;;
55559;SDS011;41414;53.250;6.514;2022-12-29T04:48:27;7.35;;;1.70;;
55559;SDS011;41414;53.250;6.514;2022-12-29T04:50:53;9.10;;;2.00;;
55559;SDS011;41414;53.250;6.514;2022-12-29T04:53:19;12.95;;;2.65;;
55559;SDS011;41414;53.250;6.514;2022-12-29T04:55:48;9.30;;;2.17;;
55559;SDS011;41414;53.250;6.514;2022-12-29T04:58:15;12.77;;;2.35;;
55559;SDS011;41414;53.250;6.514;2022-12-29T05:00:41;7.10;;;1.83;;
55559;SDS011;41414;53.250;6.514;2022-12-29T05:03:07;12.35;;;3.42;;
55559;SDS011;41414;53.250;6.514;2022-12-29T05:05:32;4.80;;;1.80;;
55559;SDS011;41414;53.250;6.514;2022-12-29T05:07:58;7.43;;;2.08;;
55559;SDS011;41414;53.250;6.514;2022-12-29T05:10:24;10.88;;;2.20;;
55559;SDS011;41414;53.250;6.514;2022-12-29T05:12:50;6.82;;;1.92;;
55559;SDS011;41414;53.250;6.514;2022-12-29T05:15:16;4.03;;;1.73;;
55559;SDS011;41414;53.250;6.514;2022-12-29T05:17:42;9.05;;;2.45;;
55559;SDS011;41414;53.250;6.514;2022-12-29T05:20:08;9.32;;;2.42;;
55559;SDS011;41414;53.250;6.514;2022-12-29T05:22:34;8.52;;;2.03;;
55559;SDS011;41414;53.250;6.514;2022-12-29T05:25:00;9.32;;;2.10;;
55559;SDS011;41414;53.250;6.514;2022-12-29T05:27:26;13.93;;;2.80;;
55559;SDS011;41414;53.250;6.514;2022-12-29T05:29:52;13.95;;;3.10;;
55559;SDS011;41414;53.250;6.514;2022-12-29T05:32:18;9.82;;;2.47;;
55559;SDS011;41414;53.250;6.514;2022-12-29T05:34:44;10.60;;;2.97;;
55559;SDS011;41414;53.250;6.514;2022-12-29T05:37:10;15.20;;;3.50;;
55559;SDS011;41414;53.250;6.514;2022-12-29T05:39:35;9.18;;;2.67;;
55559;SDS011;41414;53.250;6.514;2022-12-29T05:42:01;11.82;;;2.40;;
55559;SDS011;41414;53.250;6.514;2022-12-29T05:44:27;12.60;;;2.85;;
55559;SDS011;41414;53.250;6.514;2022-12-29T05:46:53;8.75;;;2.85;;
55559;SDS011;41414;53.250;6.514;2022-12-29T05:49:19;11.73;;;2.78;;
55559;SDS011;41414;53.250;6.514;2022-12-29T05:51:45;13.88;;;3.20;;
55559;SDS011;41414;53.250;6.514;2022-12-29T05:54:10;11.68;;;3.67;;
55559;SDS011;41414;53.250;6.514;2022-12-29T05:56:36;15.00;;;3.65;;
55559;SDS011;41414;53.250;6.514;2022-12-29T05:59:02;10.20;;;2.60;;
55559;SDS011;41414;53.250;6.514;2022-12-29T06:01:28;15.35;;;3.33;;
55559;SDS011;41414;53.250;6.514;2022-12-29T06:03:54;10.35;;;2.10;;
55559;SDS011;41414;53.250;6.514;2022-12-29T06:06:20;9.93;;;2.50;;
55559;SDS011;41414;53.250;6.514;2022-12-29T06:08:45;11.82;;;2.67;;
55559;SDS011;41414;53.250;6.514;2022-12-29T06:11:11;7.90;;;2.15;;
55559;SDS011;41414;53.250;6.514;2022-12-29T06:13:37;11.43;;;2.35;;
55559;SDS011;41414;53.250;6.514;2022-12-29T06:16:03;10.00;;;3.05;;
55559;SDS011;41414;53.250;6.514;2022-12-29T06:18:29;12.63;;;2.88;;
55559;SDS011;41414;53.250;6.514;2022-12-29T06:20:59;15.85;;;3.03;;
55559;SDS011;41414;53.250;6.514;2022-12-29T06:23:26;9.73;;;2.25;;
55559;SDS011;41414;53.250;6.514;2022-12-29T06:25:52;12.70;;;2.80;;
55559;SDS011;41414;53.250;6.514;2022-12-29T06:28:17;11.63;;;2.88;;
55559;SDS011;41414;53.250;6.514;2022-12-29T06:30:45;11.48;;;3.42;;
55559;SDS011;41414;53.250;6.514;2022-12-29T06:33:11;17.25;;;3.67;;
55559;SDS011;41414;53.250;6.514;2022-12-29T06:35:38;7.03;;;2.45;;
55559;SDS011;41414;53.250;6.514;2022-12-29T06:38:04;13.20;;;3.30;;
55559;SDS011;41414;53.250;6.514;2022-12-29T06:40:30;13.45;;;3.25;;
55559;SDS011;41414;53.250;6.514;2022-12-29T06:42:56;17.25;;;2.60;;
55559;SDS011;41414;53.250;6.514;2022-12-29T06:45:22;15.77;;;3.78;;
55559;SDS011;41414;53.250;6.514;2022-12-29T06:47:48;15.02;;;3.70;;
55559;SDS011;41414;53.250;6.514;2022-12-29T06:50:14;8.52;;;2.20;;
55559;SDS011;41414;53.250;6.514;2022-12-29T06:52:40;16.75;;;4.43;;
55559;SDS011;41414;53.250;6.514;2022-12-29T06:55:06;14.50;;;2.72;;
55559;SDS011;41414;53.250;6.514;2022-12-29T06:57:32;14.27;;;3.03;;
55559;SDS011;41414;53.250;6.514;2022-12-29T06:59:58;15.88;;;3.35;;
55559;SDS011;41414;53.250;6.514;2022-12-29T07:02:23;16.05;;;3.42;;
55559;SDS011;41414;53.250;6.514;2022-12-29T07:04:51;15.15;;;3.75;;
55559;SDS011;41414;53.250;6.514;2022-12-29T07:07:18;15.60;;;3.33;;
55559;SDS011;41414;53.250;6.514;2022-12-29T07:09:45;21.98;;;4.03;;
55559;SDS011;41414;53.250;6.514;2022-12-29T07:12:11;14.55;;;3.05;;
55559;SDS011;41414;53.250;6.514;2022-12-29T07:14:37;15.55;;;3.72;;
55559;SDS011;41414;53.250;6.514;2022-12-29T07:17:04;23.60;;;4.40;;
55559;SDS011;41414;53.250;6.514;2022-12-29T07:19:31;15.75;;;3.33;;
55559;SDS011;41414;53.250;6.514;2022-12-29T07:21:58;10.57;;;2.67;;
55559;SDS011;41414;53.250;6.514;2022-12-29T07:24:24;14.30;;;3.05;;
55559;SDS011;41414;53.250;6.514;2022-12-29T07:26:51;16.65;;;2.85;;
55559;SDS011;41414;53.250;6.514;2022-12-29T07:29:17;14.75;;;3.70;;
55559;SDS011;41414;53.250;6.514;2022-12-29T07:31:43;17.02;;;3.85;;
55559;SDS011;41414;53.250;6.514;2022-12-29T07:34:09;13.05;;;3.53;;
55559;SDS011;41414;53.250;6.514;2022-12-29T07:36:35;17.80;;;3.10;;
55559;SDS011;41414;53.250;6.514;2022-12-29T07:39:01;17.00;;;3.85;;
55559;SDS011;41414;53.250;6.514;2022-12-29T07:41:28;19.70;;;4.35;;
55559;SDS011;41414;53.250;6.514;2022-12-29T07:43:54;17.77;;;3.13;;
55559;SDS011;41414;53.250;6.514;2022-12-29T07:46:20;16.63;;;3.63;;
55559;SDS011;41414;53.250;6.514;2022-12-29T07:48:45;11.70;;;2.70;;
55559;SDS011;41414;53.250;6.514;2022-12-29T07:51:11;6.65;;;2.65;;
55559;SDS011;41414;53.250;6.514;2022-12-29T07:53:37;14.85;;;3.78;;
55559;SDS011;41414;53.250;6.514;2022-12-29T07:56:03;12.23;;;3.45;;
55559;SDS011;41414;53.250;6.514;2022-12-29T07:58:29;14.65;;;3.08;;
55559;SDS011;41414;53.250;6.514;2022-12-29T08:00:55;10.70;;;3.08;;
55559;SDS011;41414;53.250;6.514;2022-12-29T08:03:22;23.27;;;5.38;;
55559;SDS011;41414;53.250;6.514;2022-12-29T08:05:48;13.98;;;3.05;;
55559;SDS011;41414;53.250;6.514;2022-12-29T08:08:14;20.08;;;4.18;;
55559;SDS011;41414;53.250;6.514;2022-12-29T08:10:40;15.60;;;4.13;;
55559;SDS011;41414;53.250;6.514;2022-12-29T08:13:06;14.98;;;3.92;;
55559;SDS011;41414;53.250;6.514;2022-12-29T08:15:32;14.82;;;3.92;;
55559;SDS011;41414;53.250;6.514;2022-12-29T08:17:58;17.10;;;4.22;;
55559;SDS011;41414;53.250;6.514;2022-12-29T08:20:24;18.98;;;4.35;;
55559;SDS011;41414;53.250;6.514;2022-12-29T08:22:50;22.17;;;3.97;;
55559;SDS011;41414;53.250;6.514;2022-12-29T08:25:16;18.02;;;3.92;;
55559;SDS011;41414;53.250;6.514;2022-12-29T08:27:42;10.35;;;3.38;;
55559;SDS011;41414;53.250;6.514;2022-12-29T08:30:08;18.88;;;3.60;;
55559;SDS011;41414;53.250;6.514;2022-12-29T08:32:35;13.27;;;2.85;;
55559;SDS011;41414;53.250;6.514;2022-12-29T08:35:00;14.43;;;3.53;;
55559;SDS011;41414;53.250;6.514;2022-12-29T08:37:26;21.23;;;3.35;;
55559;SDS011;41414;53.250;6.514;2022-12-29T08:39:52;14.77;;;4.00;;
55559;SDS011;41414;53.250;6.514;2022-12-29T08:42:18;16.05;;;3.33;;
55559;SDS011;41414;53.250;6.514;2022-12-29T08:44:44;18.10;;;3.65;;
55559;SDS011;41414;53.250;6.514;2022-12-29T08:47:10;18.63;;;3.22;;
55559;SDS011;41414;53.250;6.514;2022-12-29T08:49:36;20.77;;;4.10;;
55559;SDS011;41414;53.250;6.514;2022-12-29T08:52:03;24.88;;;4.57;;
55559;SDS011;41414;53.250;6.514;2022-12-29T08:54:29;24.85;;;4.03;;
55559;SDS011;41414;53.250;6.514;2022-12-29T08:56:55;16.85;;;4.25;;
55559;SDS011;41414;53.250;6.514;2022-12-29T08:59:21;18.98;;;4.35;;
55559;SDS011;41414;53.250;6.514;2022-12-29T09:01:46;25.15;;;3.88;;
55559;SDS011;41414;53.250;6.514;2022-12-29T09:04:12;20.10;;;4.28;;
55559;SDS011;41414;53.250;6.514;2022-12-29T09:06:38;18.30;;;3.75;;
55559;SDS011;41414;53.250;6.514;2022-12-29T09:09:04;19.92;;;4.35;;
55559;SDS011;41414;53.250;6.514;2022-12-29T09:11:30;20.20;;;4.13;;
55559;SDS011;41414;53.250;6.514;2022-12-29T09:13:56;21.95;;;4.40;;
55559;SDS011;41414;53.250;6.514;2022-12-29T09:16:23;22.13;;;4.78;;
55559;SDS011;41414;53.250;6.514;2022-12-29T09:18:49;23.55;;;5.75;;
55559;SDS011;41414;53.250;6.514;2022-12-29T09:21:15;24.88;;;4.57;;
55559;SDS011;41414;53.250;6.514;2022-12-29T09:23:42;24.83;;;5.93;;
55559;SDS011;41414;53.250;6.514;2022-12-29T09:26:08;27.02;;;4.65;;
55559;SDS011;41414;53.250;6.514;2022-12-29T09:28:34;21.05;;;4.38;;
55559;SDS011;41414;53.250;6.514;2022-12-29T09:31:00;25.15;;;5.05;;
55559;SDS011;41414;53.250;6.514;2022-12-29T09:33:26;23.65;;;5.85;;
55559;SDS011;41414;53.250;6.514;2022-12-29T09:35:54;19.48;;;4.03;;
55559;SDS011;41414;53.250;6.514;2022-12-29T09:38:22;19.65;;;4.15;;
55559;SDS011;41414;53.250;6.514;2022-12-29T09:40:50;18.83;;;4.82;;
55559;SDS011;41414;53.250;6.514;2022-12-29T09:43:43;32.35;;;4.95;;
55559;SDS011;41414;53.250;6.514;2022-12-29T09:46:42;20.25;;;4.82;;
55559;SDS011;41414;53.250;6.514;2022-12-29T09:49:31;20.45;;;4.97;;
55559;SDS011;41414;53.250;6.514;2022-12-29T09:52:15;21.45;;;4.68;;
55559;SDS011;41414;53.250;6.514;2022-12-29T09:59:56;14.73;;;4.03;;
55559;SDS011;41414;53.250;6.514;2022-12-29T10:05:02;19.05;;;4.72;;
55559;SDS011;41414;53.250;6.514;2022-12-29T10:15:30;27.38;;;4.78;;
55559;SDS011;41414;53.250;6.514;2022-12-29T10:18:18;19.48;;;3.55;;
55559;SDS011;41414;53.250;6.514;2022-12-29T10:20:53;26.58;;;5.50;;
55559;SDS011;41414;53.250;6.514;2022-12-29T10:23:27;14.88;;;3.58;;
55559;SDS011;41414;53.250;6.514;2022-12-29T10:25:57;15.30;;;3.53;;
55559;SDS011;41414;53.250;6.514;2022-12-29T10:28:46;21.70;;;4.22;;
55559;SDS011;41414;53.250;6.514;2022-12-29T10:31:19;16.60;;;4.40;;
55559;SDS011;41414;53.250;6.514;2022-12-29T10:33:51;19.63;;;4.53;;
55559;SDS011;41414;53.250;6.514;2022-12-29T10:36:25;19.90;;;4.07;;
55559;SDS011;41414;53.250;6.514;2022-12-29T10:39:04;14.65;;;4.78;;
55559;SDS011;41414;53.250;6.514;2022-12-29T10:44:07;17.35;;;3.70;;
55559;SDS011;41414;53.250;6.514;2022-12-29T10:46:38;15.02;;;3.88;;
55559;SDS011;41414;53.250;6.514;2022-12-29T10:49:06;22.80;;;4.57;;
55559;SDS011;41414;53.250;6.514;2022-12-29T10:51:41;13.05;;;3.95;;
55559;SDS011;41414;53.250;6.514;2022-12-29T10:54:18;18.58;;;4.53;;
55559;SDS011;41414;53.250;6.514;2022-12-29T10:56:58;22.00;;;4.70;;
55559;SDS011;41414;53.250;6.514;2022-12-29T10:59:29;20.05;;;4.68;;
55559;SDS011;41414;53.250;6.514;2022-12-29T11:07:17;24.98;;;5.20;;
55559;SDS011;41414;53.250;6.514;2022-12-29T11:09:45;24.63;;;5.40;;
55559;SDS011;41414;53.250;6.514;2022-12-29T11:14:44;29.88;;;6.13;;
55559;SDS011;41414;53.250;6.514;2022-12-29T11:17:12;22.02;;;4.72;;
55559;SDS011;41414;53.250;6.514;2022-12-29T11:19:42;23.50;;;4.70;;
55559;SDS011;41414;53.250;6.514;2022-12-29T11:22:13;30.65;;;4.95;;
55559;SDS011;41414;53.250;6.514;2022-12-29T11:24:46;23.15;;;4.65;;
55559;SDS011;41414;53.250;6.514;2022-12-29T11:27:16;27.95;;;8.10;;
55559;SDS011;41414;53.250;6.514;2022-12-29T11:29:45;22.20;;;5.32;;
55559;SDS011;41414;53.250;6.514;2022-12-29T11:32:17;26.70;;;5.38;;
55559;SDS011;41414;53.250;6.514;2022-12-29T11:34:45;31.38;;;5.40;;
55559;SDS011;41414;53.250;6.514;2022-12-29T11:37:17;33.55;;;5.90;;
55559;SDS011;41414;53.250;6.514;2022-12-29T11:39:53;23.45;;;4.82;;
55559;SDS011;41414;53.250;6.514;2022-12-29T11:42:23;22.13;;;5.50;;
55559;SDS011;41414;53.250;6.514;2022-12-29T11:44:59;28.02;;;5.38;;
55559;SDS011;41414;53.250;6.514;2022-12-29T11:47:42;29.52;;;4.65;;
55559;SDS011;41414;53.250;6.514;2022-12-29T11:50:16;24.65;;;4.40;;
55559;SDS011;41414;53.250;6.514;2022-12-29T11:52:56;23.55;;;4.70;;
55559;SDS011;41414;53.250;6.514;2022-12-29T11:55:26;24.48;;;5.93;;
55559;SDS011;41414;53.250;6.514;2022-12-29T11:57:54;22.58;;;4.57;;
55559;SDS011;41414;53.250;6.514;2022-12-29T12:00:22;29.42;;;5.82;;
55559;SDS011;41414;53.250;6.514;2022-12-29T12:02:57;18.10;;;3.88;;
55559;SDS011;41414;53.250;6.514;2022-12-29T12:05:36;14.82;;;4.00;;
55559;SDS011;41414;53.250;6.514;2022-12-29T12:08:19;26.65;;;4.40;;
55559;SDS011;41414;53.250;6.514;2022-12-29T12:11:04;26.33;;;4.93;;
55559;SDS011;41414;53.250;6.514;2022-12-29T12:13:43;24.80;;;4.63;;
55559;SDS011;41414;53.250;6.514;2022-12-29T12:16:31;29.98;;;5.43;;
55559;SDS011;41414;53.250;6.514;2022-12-29T12:27:08;16.42;;;3.85;;
55559;SDS011;41414;53.250;6.514;2022-12-29T12:30:02;19.80;;;3.80;;
55559;SDS011;41414;53.250;6.514;2022-12-29T12:32:39;15.95;;;3.65;;
55559;SDS011;41414;53.250;6.514;2022-12-29T12:35:13;17.75;;;3.03;;
55559;SDS011;41414;53.250;6.514;2022-12-29T12:37:55;11.23;;;3.28;;
55559;SDS011;41414;53.250;6.514;2022-12-29T12:40:34;11.70;;;2.90;;
55559;SDS011;41414;53.250;6.514;2022-12-29T12:43:18;12.30;;;2.50;;
55559;SDS011;41414;53.250;6.514;2022-12-29T12:45:52;18.17;;;2.92;;
55559;SDS011;41414;53.250;6.514;2022-12-29T12:51:30;14.30;;;2.58;;
55559;SDS011;41414;53.250;6.514;2022-12-29T12:54:01;13.57;;;2.72;;
55559;SDS011;41414;53.250;6.514;2022-12-29T12:56:45;17.23;;;2.88;;
55559;SDS011;41414;53.250;6.514;2022-12-29T13:02:23;11.88;;;3.42;;
55559;SDS011;41414;53.250;6.514;2022-12-29T13:05:15;14.55;;;2.20;;
55559;SDS011;41414;53.250;6.514;2022-12-29T13:10:50;15.98;;;3.33;;
55559;SDS011;41414;53.250;6.514;2022-12-29T13:13:34;11.18;;;2.10;;
55559;SDS011;41414;53.250;6.514;2022-12-29T13:16:13;12.02;;;2.08;;
55559;SDS011;41414;53.250;6.514;2022-12-29T13:18:52;8.27;;;2.78;;
55559;SDS011;41414;53.250;6.514;2022-12-29T13:21:33;11.13;;;2.20;;
55559;SDS011;41414;53.250;6.514;2022-12-29T13:24:16;13.63;;;1.92;;
55559;SDS011;41414;53.250;6.514;2022-12-29T13:26:54;7.10;;;1.75;;
55559;SDS011;41414;53.250;6.514;2022-12-29T13:32:24;11.85;;;2.03;;
55559;SDS011;41414;53.250;6.514;2022-12-29T13:35:00;15.07;;;3.47;;
55559;SDS011;41414;53.250;6.514;2022-12-29T13:37:41;9.77;;;2.00;;
55559;SDS011;41414;53.250;6.514;2022-12-29T13:40:21;10.68;;;2.65;;
55559;SDS011;41414;53.250;6.514;2022-12-29T13:42:50;11.52;;;1.90;;
55559;SDS011;41414;53.250;6.514;2022-12-29T13:45:19;10.82;;;2.08;;
55559;SDS011;41414;53.250;6.514;2022-12-29T13:50:35;7.50;;;1.85;;
55559;SDS011;41414;53.250;6.514;2022-12-29T13:58:36;11.57;;;2.72;;
55559;SDS011;41414;53.250;6.514;2022-12-29T14:01:15;14.93;;;2.00;;
55559;SDS011;41414;53.250;6.514;2022-12-29T14:03:49;11.18;;;2.28;;
55559;SDS011;41414;53.250;6.514;2022-12-29T14:06:20;14.38;;;3.60;;
55559;SDS011;41414;53.250;6.514;2022-12-29T14:08:59;10.85;;;2.33;;
55559;SDS011;41414;53.250;6.514;2022-12-29T14:11:33;12.07;;;2.03;;
55559;SDS011;41414;53.250;6.514;2022-12-29T14:14:12;15.88;;;3.97;;
55559;SDS011;41414;53.250;6.514;2022-12-29T14:16:53;7.50;;;1.88;;
55559;SDS011;41414;53.250;6.514;2022-12-29T14:19:24;14.13;;;2.90;;
55559;SDS011;41414;53.250;6.514;2022-12-29T14:21:57;11.32;;;2.33;;
55559;SDS011;41414;53.250;6.514;2022-12-29T14:27:01;10.07;;;2.67;;
55559;SDS011;41414;53.250;6.514;2022-12-29T14:32:40;9.88;;;2.33;;
55559;SDS011;41414;53.250;6.514;2022-12-29T14:34:58;14.13;;;2.22;;
55559;SDS011;41414;53.250;6.514;2022-12-29T14:37:27;10.90;;;2.05;;
55559;SDS011;41414;53.250;6.514;2022-12-29T14:42:43;13.63;;;3.50;;
55559;SDS011;41414;53.250;6.514;2022-12-29T14:47:39;13.45;;;2.20;;
55559;SDS011;41414;53.250;6.514;2022-12-29T14:50:11;12.27;;;2.97;;
55559;SDS011;41414;53.250;6.514;2022-12-29T14:55:30;13.00;;;2.70;;
55559;SDS011;41414;53.250;6.514;2022-12-29T14:58:14;13.85;;;2.97;;
55559;SDS011;41414;53.250;6.514;2022-12-29T15:00:45;16.65;;;2.80;;
55559;SDS011;41414;53.250;6.514;2022-12-29T15:03:22;13.00;;;2.67;;
55559;SDS011;41414;53.250;6.514;2022-12-29T15:08:31;20.02;;;3.10;;
55559;SDS011;41414;53.250;6.514;2022-12-29T15:11:04;14.75;;;2.95;;
55559;SDS011;41414;53.250;6.514;2022-12-29T15:13:37;19.77;;;3.08;;
55559;SDS011;41414;53.250;6.514;2022-12-29T15:18:55;12.77;;;3.15;;
55559;SDS011;41414;53.250;6.514;2022-12-29T15:21:23;18.90;;;4.03;;
55559;SDS011;41414;53.250;6.514;2022-12-29T15:23:51;17.77;;;4.03;;
55559;SDS011;41414;53.250;6.514;2022-12-29T15:26:18;14.82;;;3.30;;
55559;SDS011;41414;53.250;6.514;2022-12-29T15:28:47;21.13;;;3.72;;
55559;SDS011;41414;53.250;6.514;2022-12-29T15:31:16;17.08;;;3.08;;
55559;SDS011;41414;53.250;6.514;2022-12-29T15:33:46;12.65;;;3.30;;
55559;SDS011;41414;53.250;6.514;2022-12-29T15:36:17;22.40;;;4.50;;
55559;SDS011;41414;53.250;6.514;2022-12-29T15:38:47;17.50;;;3.25;;
55559;SDS011;41414;53.250;6.514;2022-12-29T15:41:25;16.95;;;3.65;;
55559;SDS011;41414;53.250;6.514;2022-12-29T15:44:26;14.60;;;3.08;;
55559;SDS011;41414;53.250;6.514;2022-12-29T15:47:02;12.35;;;3.25;;
55559;SDS011;41414;53.250;6.514;2022-12-29T15:49:30;13.50;;;2.90;;
55559;SDS011;41414;53.250;6.514;2022-12-29T15:51:56;19.23;;;4.15;;
55559;SDS011;41414;53.250;6.514;2022-12-29T15:54:23;21.63;;;3.38;;
55559;SDS011;41414;53.250;6.514;2022-12-29T15:56:51;13.73;;;2.97;;
55559;SDS011;41414;53.250;6.514;2022-12-29T15:59:27;18.52;;;2.95;;
55559;SDS011;41414;53.250;6.514;2022-12-29T16:01:55;16.27;;;3.60;;
55559;SDS011;41414;53.250;6.514;2022-12-29T16:04:22;23.33;;;4.00;;
55559;SDS011;41414;53.250;6.514;2022-12-29T16:06:56;16.65;;;3.10;;
55559;SDS011;41414;53.250;6.514;2022-12-29T16:09:29;19.17;;;3.35;;
55559;SDS011;41414;53.250;6.514;2022-12-29T16:12:03;17.73;;;3.83;;
55559;SDS011;41414;53.250;6.514;2022-12-29T16:14:33;21.52;;;3.42;;
55559;SDS011;41414;53.250;6.514;2022-12-29T16:17:06;14.30;;;4.07;;
55559;SDS011;41414;53.250;6.514;2022-12-29T16:19:37;17.58;;;3.78;;
55559;SDS011;41414;53.250;6.514;2022-12-29T16:24:54;17.23;;;3.03;;
55559;SDS011;41414;53.250;6.514;2022-12-29T16:30:03;13.43;;;2.85;;
55559;SDS011;41414;53.250;6.514;2022-12-29T16:37:37;15.18;;;2.85;;
55559;SDS011;41414;53.250;6.514;2022-12-29T16:47:45;8.63;;;2.17;;
55559;SDS011;41414;53.250;6.514;2022-12-29T16:50:15;9.18;;;2.22;;
55559;SDS011;41414;53.250;6.514;2022-12-29T16:52:48;12.90;;;3.17;;
55559;SDS011;41414;53.250;6.514;2022-12-29T16:55:15;9.20;;;2.17;;
55559;SDS011;41414;53.250;6.514;2022-12-29T16:57:42;15.10;;;2.65;;